Aérodrome :
LOGIN :

S'inscrire | Disclaimer

   EN    FR    IT 

 










Légende :    VFR   VFR Marginal   IFR   IFR Intensif   IFR Très Intensif
Visi : 
Plafond : 
>= 8 km
>= 3000ft
5 à 8 km
1000 à 3000 ft
1500m à 5 km
500 à 1000 ft
800 à 1500m
200 à 500 ft
< 800m
< 200 ft
Symboles :   Orages  Brouillard  Fortes neiges  Fortes précipitations  Vent > 20 kt
SIGMETs :   Divers  Orages  Givrage  Turbulence  Onde Orograph.  Cendres Volcan.







- Altitude de l'aérodrome : 53 ft
- Code IATA : HAM


EDDH - Hamburg

DERNIER METAR :
  • 211750Z 28010KT 4200 -DZ BR FEW004 BKN005 08/07 Q1024 TEMPO 2500 BKN004

METARs EXPIRÉS :
  • 211720Z 28009KT 5000 -RA BR SCT005 BKN007 08/07 Q1024 TEMPO 2500 BKN004
  • 211650Z 29010KT 3500 -RADZ BR SCT004 BKN006 09/08 Q1023 TEMPO 2500 BKN004
  • 211620Z 29007KT 3000 -RADZ BR BKN004 09/08 Q1023 TEMPO 2500
  • 211550Z 28008KT 2800 -RADZ BR FEW004 BKN005 09/08 Q1023 TEMPO 3000 BKN004
  • 211520Z 27009KT 230V300 3000 -RADZ BR BKN005 09/08 Q1023 TEMPO 2500 BKN004

TAF TAF EDDH
Valide du 21 à 18h jusqu'au 23 à 00h UTC


211700Z 2118/2224 30007KT 3500 BR BKN003
TEMPO 2118/2201 2500 -DZ BKN005
BECMG 2201/2203 04007KT 9999 BKN006
PROB30
TEMPO 2203/2206 BKN010
BECMG 2206/2208 BKN010
BECMG 2208/2210 11007KT CAVOK
Pas de NOTAMs connus pour ce terrain.



MET'MAP, la Météo Aéronautique d'un coup d'oeil ! - Copyright ORBIFLY Décembre 2007 - Disclaimer

ORBIFLY MET'MAP TEAM :

Programmation & Développement : Alexandra Zaïnal
Conception & Développement : Baudouin d'Aumeries
Co-Programmation & Développement : Marc-Olivier Méhu
Soutien technique & logistique : Manuel Goepfert

Contact : metmap@orbifly.com




SOURCES & CREDITS :

   NOAA